sensor_id;sensor_type;location;lat;lon;timestamp;P1;durP1;ratioP1;P2;durP2;ratioP2
4833;SDS011;12895;51.064;7.028;2023-10-09T00:00:15;21.60;;;18.07;;
4833;SDS011;12895;51.064;7.028;2023-10-09T00:03:35;31.43;;;19.60;;
4833;SDS011;12895;51.064;7.028;2023-10-09T00:06:22;26.23;;;18.57;;
4833;SDS011;12895;51.064;7.028;2023-10-09T00:09:15;26.70;;;17.50;;
4833;SDS011;12895;51.064;7.028;2023-10-09T00:12:15;25.67;;;18.33;;
4833;SDS011;12895;51.064;7.028;2023-10-09T00:15:06;28.00;;;17.97;;
4833;SDS011;12895;51.064;7.028;2023-10-09T00:17:56;23.33;;;17.37;;
4833;SDS011;12895;51.064;7.028;2023-10-09T00:20:44;25.23;;;17.60;;
4833;SDS011;12895;51.064;7.028;2023-10-09T00:23:37;27.53;;;17.10;;
4833;SDS011;12895;51.064;7.028;2023-10-09T00:26:22;21.57;;;16.97;;
4833;SDS011;12895;51.064;7.028;2023-10-09T00:29:10;26.97;;;17.93;;
4833;SDS011;12895;51.064;7.028;2023-10-09T00:31:59;23.73;;;16.77;;
4833;SDS011;12895;51.064;7.028;2023-10-09T00:34:57;19.50;;;15.40;;
4833;SDS011;12895;51.064;7.028;2023-10-09T00:38:04;21.90;;;15.90;;
4833;SDS011;12895;51.064;7.028;2023-10-09T00:40:58;24.17;;;16.03;;
4833;SDS011;12895;51.064;7.028;2023-10-09T00:43:48;23.67;;;15.87;;
4833;SDS011;12895;51.064;7.028;2023-10-09T00:46:34;20.40;;;15.83;;
4833;SDS011;12895;51.064;7.028;2023-10-09T00:49:21;21.43;;;16.03;;
4833;SDS011;12895;51.064;7.028;2023-10-09T00:52:07;20.90;;;15.77;;
4833;SDS011;12895;51.064;7.028;2023-10-09T00:55:04;20.80;;;14.93;;
4833;SDS011;12895;51.064;7.028;2023-10-09T00:57:52;19.40;;;14.93;;
4833;SDS011;12895;51.064;7.028;2023-10-09T01:00:43;21.87;;;16.40;;
4833;SDS011;12895;51.064;7.028;2023-10-09T01:03:40;20.63;;;15.97;;
4833;SDS011;12895;51.064;7.028;2023-10-09T01:06:25;22.03;;;14.80;;
4833;SDS011;12895;51.064;7.028;2023-10-09T01:09:19;21.10;;;15.57;;
4833;SDS011;12895;51.064;7.028;2023-10-09T01:12:07;21.57;;;15.23;;
4833;SDS011;12895;51.064;7.028;2023-10-09T01:15:07;19.83;;;14.10;;
4833;SDS011;12895;51.064;7.028;2023-10-09T01:18:02;20.17;;;15.47;;
4833;SDS011;12895;51.064;7.028;2023-10-09T01:20:49;21.33;;;14.10;;
4833;SDS011;12895;51.064;7.028;2023-10-09T01:23:38;18.10;;;13.53;;
4833;SDS011;12895;51.064;7.028;2023-10-09T01:26:28;20.43;;;14.00;;
4833;SDS011;12895;51.064;7.028;2023-10-09T01:29:16;18.93;;;14.07;;
4833;SDS011;12895;51.064;7.028;2023-10-09T01:32:05;17.47;;;13.53;;
4833;SDS011;12895;51.064;7.028;2023-10-09T01:34:50;18.30;;;14.00;;
4833;SDS011;12895;51.064;7.028;2023-10-09T01:37:39;16.37;;;12.77;;
4833;SDS011;12895;51.064;7.028;2023-10-09T01:40:28;15.20;;;13.03;;
4833;SDS011;12895;51.064;7.028;2023-10-09T01:43:21;14.63;;;12.37;;
4833;SDS011;12895;51.064;7.028;2023-10-09T01:46:06;16.10;;;12.67;;
4833;SDS011;12895;51.064;7.028;2023-10-09T01:49:00;16.30;;;12.30;;
4833;SDS011;12895;51.064;7.028;2023-10-09T01:51:53;16.23;;;12.00;;
4833;SDS011;12895;51.064;7.028;2023-10-09T01:54:42;13.63;;;12.10;;
4833;SDS011;12895;51.064;7.028;2023-10-09T01:57:33;18.57;;;14.13;;
4833;SDS011;12895;51.064;7.028;2023-10-09T02:00:20;14.40;;;11.87;;
4833;SDS011;12895;51.064;7.028;2023-10-09T02:03:09;19.00;;;12.17;;
4833;SDS011;12895;51.064;7.028;2023-10-09T02:06:00;15.17;;;11.67;;
4833;SDS011;12895;51.064;7.028;2023-10-09T02:08:47;17.33;;;12.20;;
4833;SDS011;12895;51.064;7.028;2023-10-09T02:11:39;14.57;;;11.87;;
4833;SDS011;12895;51.064;7.028;2023-10-09T02:14:26;14.70;;;12.70;;
4833;SDS011;12895;51.064;7.028;2023-10-09T02:17:13;13.90;;;11.47;;
4833;SDS011;12895;51.064;7.028;2023-10-09T02:20:03;14.93;;;12.17;;
4833;SDS011;12895;51.064;7.028;2023-10-09T02:23:04;13.80;;;12.27;;
4833;SDS011;12895;51.064;7.028;2023-10-09T02:25:56;15.73;;;14.10;;
4833;SDS011;12895;51.064;7.028;2023-10-09T02:28:48;13.83;;;11.53;;
4833;SDS011;12895;51.064;7.028;2023-10-09T02:31:44;13.80;;;11.43;;
4833;SDS011;12895;51.064;7.028;2023-10-09T02:34:33;13.23;;;10.80;;
4833;SDS011;12895;51.064;7.028;2023-10-09T02:37:22;13.60;;;10.50;;
4833;SDS011;12895;51.064;7.028;2023-10-09T02:40:09;12.47;;;10.23;;
4833;SDS011;12895;51.064;7.028;2023-10-09T02:42:59;13.83;;;10.80;;
4833;SDS011;12895;51.064;7.028;2023-10-09T02:45:45;11.93;;;9.80;;
4833;SDS011;12895;51.064;7.028;2023-10-09T02:48:35;12.90;;;10.97;;
4833;SDS011;12895;51.064;7.028;2023-10-09T02:51:27;14.00;;;11.93;;
4833;SDS011;12895;51.064;7.028;2023-10-09T02:54:17;13.00;;;10.90;;
4833;SDS011;12895;51.064;7.028;2023-10-09T02:57:22;11.67;;;10.43;;
4833;SDS011;12895;51.064;7.028;2023-10-09T03:00:08;12.57;;;11.17;;
4833;SDS011;12895;51.064;7.028;2023-10-09T03:03:03;15.53;;;11.33;;
4833;SDS011;12895;51.064;7.028;2023-10-09T03:05:52;14.93;;;11.37;;
4833;SDS011;12895;51.064;7.028;2023-10-09T03:08:47;13.07;;;11.67;;
4833;SDS011;12895;51.064;7.028;2023-10-09T03:11:32;14.87;;;11.97;;
4833;SDS011;12895;51.064;7.028;2023-10-09T03:14:19;13.43;;;11.00;;
4833;SDS011;12895;51.064;7.028;2023-10-09T03:17:05;12.97;;;10.90;;
4833;SDS011;12895;51.064;7.028;2023-10-09T03:19:57;11.20;;;10.10;;
4833;SDS011;12895;51.064;7.028;2023-10-09T03:22:44;11.67;;;9.87;;
4833;SDS011;12895;51.064;7.028;2023-10-09T03:25:40;11.80;;;10.63;;
4833;SDS011;12895;51.064;7.028;2023-10-09T03:28:29;11.30;;;9.87;;
4833;SDS011;12895;51.064;7.028;2023-10-09T03:31:14;14.00;;;10.97;;
4833;SDS011;12895;51.064;7.028;2023-10-09T03:34:00;14.60;;;10.80;;
4833;SDS011;12895;51.064;7.028;2023-10-09T03:36:50;14.00;;;10.23;;
4833;SDS011;12895;51.064;7.028;2023-10-09T03:39:45;12.97;;;10.83;;
4833;SDS011;12895;51.064;7.028;2023-10-09T03:42:51;12.43;;;11.17;;
4833;SDS011;12895;51.064;7.028;2023-10-09T03:45:36;12.57;;;9.10;;
4833;SDS011;12895;51.064;7.028;2023-10-09T03:48:29;13.93;;;10.30;;
4833;SDS011;12895;51.064;7.028;2023-10-09T03:51:17;14.00;;;10.40;;
4833;SDS011;12895;51.064;7.028;2023-10-09T03:54:06;12.50;;;10.80;;
4833;SDS011;12895;51.064;7.028;2023-10-09T03:56:53;11.93;;;10.67;;
4833;SDS011;12895;51.064;7.028;2023-10-09T03:59:44;15.27;;;10.50;;
4833;SDS011;12895;51.064;7.028;2023-10-09T04:02:31;12.50;;;9.80;;
4833;SDS011;12895;51.064;7.028;2023-10-09T04:05:17;12.37;;;11.03;;
4833;SDS011;12895;51.064;7.028;2023-10-09T04:08:02;13.90;;;10.60;;
4833;SDS011;12895;51.064;7.028;2023-10-09T04:11:04;11.73;;;10.63;;
4833;SDS011;12895;51.064;7.028;2023-10-09T04:14:01;11.53;;;10.33;;
4833;SDS011;12895;51.064;7.028;2023-10-09T04:16:54;13.33;;;10.37;;
4833;SDS011;12895;51.064;7.028;2023-10-09T04:19:48;11.60;;;9.80;;
4833;SDS011;12895;51.064;7.028;2023-10-09T04:22:56;10.43;;;9.30;;
4833;SDS011;12895;51.064;7.028;2023-10-09T04:25:44;10.23;;;9.00;;
4833;SDS011;12895;51.064;7.028;2023-10-09T04:28:34;11.17;;;10.07;;
4833;SDS011;12895;51.064;7.028;2023-10-09T04:31:21;14.73;;;10.47;;
4833;SDS011;12895;51.064;7.028;2023-10-09T04:34:15;10.80;;;9.70;;
4833;SDS011;12895;51.064;7.028;2023-10-09T04:37:06;12.40;;;9.67;;
4833;SDS011;12895;51.064;7.028;2023-10-09T04:40:24;12.73;;;9.80;;
4833;SDS011;12895;51.064;7.028;2023-10-09T04:43:23;11.63;;;10.07;;
4833;SDS011;12895;51.064;7.028;2023-10-09T04:46:11;13.13;;;10.33;;
4833;SDS011;12895;51.064;7.028;2023-10-09T04:48:58;10.97;;;9.80;;
4833;SDS011;12895;51.064;7.028;2023-10-09T04:52:00;11.43;;;10.27;;
4833;SDS011;12895;51.064;7.028;2023-10-09T04:54:50;12.40;;;10.17;;
4833;SDS011;12895;51.064;7.028;2023-10-09T04:57:56;11.07;;;9.97;;
4833;SDS011;12895;51.064;7.028;2023-10-09T05:00:53;12.20;;;11.00;;
4833;SDS011;12895;51.064;7.028;2023-10-09T05:03:59;12.00;;;9.67;;
4833;SDS011;12895;51.064;7.028;2023-10-09T05:06:48;11.27;;;9.93;;
4833;SDS011;12895;51.064;7.028;2023-10-09T05:09:42;13.63;;;10.60;;
4833;SDS011;12895;51.064;7.028;2023-10-09T05:12:39;13.07;;;9.73;;
4833;SDS011;12895;51.064;7.028;2023-10-09T05:15:30;14.63;;;10.80;;
4833;SDS011;12895;51.064;7.028;2023-10-09T05:18:18;11.87;;;10.57;;
4833;SDS011;12895;51.064;7.028;2023-10-09T05:21:13;11.17;;;10.00;;
4833;SDS011;12895;51.064;7.028;2023-10-09T05:24:20;11.40;;;10.10;;
4833;SDS011;12895;51.064;7.028;2023-10-09T05:27:10;13.07;;;11.50;;
4833;SDS011;12895;51.064;7.028;2023-10-09T05:30:24;13.00;;;10.40;;
4833;SDS011;12895;51.064;7.028;2023-10-09T05:33:08;13.47;;;10.37;;
4833;SDS011;12895;51.064;7.028;2023-10-09T05:36:07;12.97;;;10.77;;
4833;SDS011;12895;51.064;7.028;2023-10-09T05:39:15;11.67;;;10.47;;
4833;SDS011;12895;51.064;7.028;2023-10-09T05:42:13;13.93;;;11.17;;
4833;SDS011;12895;51.064;7.028;2023-10-09T05:45:03;14.50;;;11.23;;
4833;SDS011;12895;51.064;7.028;2023-10-09T05:48:08;12.83;;;11.50;;
4833;SDS011;12895;51.064;7.028;2023-10-09T05:51:25;13.37;;;10.70;;
4833;SDS011;12895;51.064;7.028;2023-10-09T05:54:29;14.47;;;12.03;;
4833;SDS011;12895;51.064;7.028;2023-10-09T05:57:36;14.27;;;11.23;;
4833;SDS011;12895;51.064;7.028;2023-10-09T06:00:44;13.60;;;12.20;;
4833;SDS011;12895;51.064;7.028;2023-10-09T06:03:48;15.30;;;10.67;;
4833;SDS011;12895;51.064;7.028;2023-10-09T06:06:37;12.43;;;11.20;;
4833;SDS011;12895;51.064;7.028;2023-10-09T06:09:42;14.27;;;11.50;;
4833;SDS011;12895;51.064;7.028;2023-10-09T06:12:37;14.87;;;13.47;;
4833;SDS011;12895;51.064;7.028;2023-10-09T06:15:36;14.13;;;12.30;;
4833;SDS011;12895;51.064;7.028;2023-10-09T06:18:53;15.67;;;13.53;;
4833;SDS011;12895;51.064;7.028;2023-10-09T06:21:53;13.40;;;12.00;;
4833;SDS011;12895;51.064;7.028;2023-10-09T06:24:59;15.83;;;12.70;;
4833;SDS011;12895;51.064;7.028;2023-10-09T06:27:52;14.13;;;12.63;;
4833;SDS011;12895;51.064;7.028;2023-10-09T06:30:44;15.40;;;12.30;;
4833;SDS011;12895;51.064;7.028;2023-10-09T06:33:32;18.10;;;12.57;;
4833;SDS011;12895;51.064;7.028;2023-10-09T06:36:37;16.40;;;12.23;;
4833;SDS011;12895;51.064;7.028;2023-10-09T06:39:36;16.20;;;14.50;;
4833;SDS011;12895;51.064;7.028;2023-10-09T06:42:52;15.30;;;11.63;;
4833;SDS011;12895;51.064;7.028;2023-10-09T06:45:39;14.40;;;11.73;;
4833;SDS011;12895;51.064;7.028;2023-10-09T06:48:30;12.50;;;11.20;;
4833;SDS011;12895;51.064;7.028;2023-10-09T06:51:29;13.57;;;11.20;;
4833;SDS011;12895;51.064;7.028;2023-10-09T06:54:26;11.67;;;10.50;;
4833;SDS011;12895;51.064;7.028;2023-10-09T06:57:24;12.63;;;11.33;;
4833;SDS011;12895;51.064;7.028;2023-10-09T07:00:28;11.17;;;10.07;;
4833;SDS011;12895;51.064;7.028;2023-10-09T07:03:27;12.13;;;10.80;;
4833;SDS011;12895;51.064;7.028;2023-10-09T07:06:17;12.30;;;10.40;;
4833;SDS011;12895;51.064;7.028;2023-10-09T07:09:07;11.63;;;10.53;;
4833;SDS011;12895;51.064;7.028;2023-10-09T07:12:02;11.37;;;10.17;;
4833;SDS011;12895;51.064;7.028;2023-10-09T07:14:53;11.10;;;9.77;;
4833;SDS011;12895;51.064;7.028;2023-10-09T07:17:56;10.70;;;9.60;;
4833;SDS011;12895;51.064;7.028;2023-10-09T07:21:01;14.17;;;10.70;;
4833;SDS011;12895;51.064;7.028;2023-10-09T07:23:55;15.40;;;11.57;;
4833;SDS011;12895;51.064;7.028;2023-10-09T07:26:48;12.57;;;10.43;;
4833;SDS011;12895;51.064;7.028;2023-10-09T07:29:37;10.83;;;9.83;;
4833;SDS011;12895;51.064;7.028;2023-10-09T07:32:31;17.97;;;11.87;;
4833;SDS011;12895;51.064;7.028;2023-10-09T07:35:20;13.87;;;11.37;;
4833;SDS011;12895;51.064;7.028;2023-10-09T07:38:26;12.50;;;10.97;;
4833;SDS011;12895;51.064;7.028;2023-10-09T07:41:13;11.93;;;10.57;;
4833;SDS011;12895;51.064;7.028;2023-10-09T07:44:16;12.37;;;11.17;;
4833;SDS011;12895;51.064;7.028;2023-10-09T07:47:18;11.50;;;9.80;;
4833;SDS011;12895;51.064;7.028;2023-10-09T07:50:06;14.17;;;10.73;;
4833;SDS011;12895;51.064;7.028;2023-10-09T07:52:57;13.10;;;11.70;;
4833;SDS011;12895;51.064;7.028;2023-10-09T07:55:58;13.17;;;11.80;;
4833;SDS011;12895;51.064;7.028;2023-10-09T07:58:50;12.10;;;10.90;;
4833;SDS011;12895;51.064;7.028;2023-10-09T08:01:35;12.13;;;10.40;;
4833;SDS011;12895;51.064;7.028;2023-10-09T08:04:21;15.33;;;11.30;;
4833;SDS011;12895;51.064;7.028;2023-10-09T08:07:21;10.77;;;9.77;;
4833;SDS011;12895;51.064;7.028;2023-10-09T08:10:11;11.40;;;9.40;;
4833;SDS011;12895;51.064;7.028;2023-10-09T08:13:12;11.10;;;10.00;;
4833;SDS011;12895;51.064;7.028;2023-10-09T08:16:11;13.40;;;11.43;;
4833;SDS011;12895;51.064;7.028;2023-10-09T08:19:04;14.30;;;12.40;;
4833;SDS011;12895;51.064;7.028;2023-10-09T08:22:03;15.33;;;12.27;;
4833;SDS011;12895;51.064;7.028;2023-10-09T08:25:19;13.47;;;12.17;;
4833;SDS011;12895;51.064;7.028;2023-10-09T08:28:15;13.90;;;11.50;;
4833;SDS011;12895;51.064;7.028;2023-10-09T08:31:18;13.00;;;11.63;;
4833;SDS011;12895;51.064;7.028;2023-10-09T08:34:18;12.20;;;10.00;;
4833;SDS011;12895;51.064;7.028;2023-10-09T08:37:08;15.03;;;11.20;;
4833;SDS011;12895;51.064;7.028;2023-10-09T08:39:56;13.83;;;11.57;;
4833;SDS011;12895;51.064;7.028;2023-10-09T08:42:43;12.80;;;11.40;;
4833;SDS011;12895;51.064;7.028;2023-10-09T08:45:33;15.03;;;11.60;;
4833;SDS011;12895;51.064;7.028;2023-10-09T08:48:18;12.93;;;11.40;;
4833;SDS011;12895;51.064;7.028;2023-10-09T08:51:05;15.80;;;11.00;;
4833;SDS011;12895;51.064;7.028;2023-10-09T08:53:51;12.93;;;10.50;;
4833;SDS011;12895;51.064;7.028;2023-10-09T08:56:36;13.60;;;10.00;;
4833;SDS011;12895;51.064;7.028;2023-10-09T08:59:24;12.60;;;9.73;;
4833;SDS011;12895;51.064;7.028;2023-10-09T09:02:10;15.90;;;10.23;;
4833;SDS011;12895;51.064;7.028;2023-10-09T09:04:56;11.90;;;9.60;;
4833;SDS011;12895;51.064;7.028;2023-10-09T09:07:41;11.30;;;10.30;;
4833;SDS011;12895;51.064;7.028;2023-10-09T09:10:27;11.10;;;9.90;;
4833;SDS011;12895;51.064;7.028;2023-10-09T09:13:18;13.87;;;10.47;;
4833;SDS011;12895;51.064;7.028;2023-10-09T09:16:05;13.00;;;10.33;;
4833;SDS011;12895;51.064;7.028;2023-10-09T09:18:52;13.00;;;10.60;;
4833;SDS011;12895;51.064;7.028;2023-10-09T09:21:48;14.37;;;10.20;;
4833;SDS011;12895;51.064;7.028;2023-10-09T09:24:38;11.47;;;10.37;;
4833;SDS011;12895;51.064;7.028;2023-10-09T09:27:43;12.20;;;10.07;;
4833;SDS011;12895;51.064;7.028;2023-10-09T09:30:36;13.13;;;11.33;;
4833;SDS011;12895;51.064;7.028;2023-10-09T09:33:23;12.07;;;10.67;;
4833;SDS011;12895;51.064;7.028;2023-10-09T09:36:14;12.00;;;9.67;;
4833;SDS011;12895;51.064;7.028;2023-10-09T09:39:00;13.63;;;10.70;;
4833;SDS011;12895;51.064;7.028;2023-10-09T09:41:46;14.10;;;11.47;;
4833;SDS011;12895;51.064;7.028;2023-10-09T09:44:36;12.80;;;11.40;;
4833;SDS011;12895;51.064;7.028;2023-10-09T09:47:28;10.93;;;9.83;;
4833;SDS011;12895;51.064;7.028;2023-10-09T09:50:16;13.13;;;9.57;;
4833;SDS011;12895;51.064;7.028;2023-10-09T09:53:06;9.30;;;8.40;;
4833;SDS011;12895;51.064;7.028;2023-10-09T09:55:54;9.20;;;8.13;;
4833;SDS011;12895;51.064;7.028;2023-10-09T09:58:43;8.60;;;7.80;;
4833;SDS011;12895;51.064;7.028;2023-10-09T10:01:31;12.17;;;8.90;;
4833;SDS011;12895;51.064;7.028;2023-10-09T10:04:19;10.23;;;8.97;;
4833;SDS011;12895;51.064;7.028;2023-10-09T10:07:07;9.73;;;8.53;;
4833;SDS011;12895;51.064;7.028;2023-10-09T10:09:54;11.60;;;9.73;;
4833;SDS011;12895;51.064;7.028;2023-10-09T10:12:51;11.40;;;9.93;;
4833;SDS011;12895;51.064;7.028;2023-10-09T10:15:59;10.53;;;8.60;;
4833;SDS011;12895;51.064;7.028;2023-10-09T10:18:53;9.47;;;8.57;;
4833;SDS011;12895;51.064;7.028;2023-10-09T10:21:43;12.67;;;10.47;;
4833;SDS011;12895;51.064;7.028;2023-10-09T10:24:43;9.80;;;8.10;;
4833;SDS011;12895;51.064;7.028;2023-10-09T10:27:38;19.87;;;15.50;;
4833;SDS011;12895;51.064;7.028;2023-10-09T10:30:45;9.63;;;7.83;;
4833;SDS011;12895;51.064;7.028;2023-10-09T10:36:30;9.20;;;7.83;;
4833;SDS011;12895;51.064;7.028;2023-10-09T10:39:15;7.90;;;7.10;;
4833;SDS011;12895;51.064;7.028;2023-10-09T10:42:06;7.57;;;6.70;;
4833;SDS011;12895;51.064;7.028;2023-10-09T10:44:53;8.20;;;7.40;;
4833;SDS011;12895;51.064;7.028;2023-10-09T10:47:40;11.70;;;7.60;;
4833;SDS011;12895;51.064;7.028;2023-10-09T10:50:26;9.00;;;7.40;;
4833;SDS011;12895;51.064;7.028;2023-10-09T10:53:20;11.43;;;7.17;;
4833;SDS011;12895;51.064;7.028;2023-10-09T10:56:05;8.83;;;7.47;;
4833;SDS011;12895;51.064;7.028;2023-10-09T10:59:04;8.70;;;6.90;;
4833;SDS011;12895;51.064;7.028;2023-10-09T11:01:58;11.00;;;7.43;;
4833;SDS011;12895;51.064;7.028;2023-10-09T11:04:57;8.93;;;7.07;;
4833;SDS011;12895;51.064;7.028;2023-10-09T11:07:58;14.10;;;7.67;;
4833;SDS011;12895;51.064;7.028;2023-10-09T11:10:44;9.97;;;7.33;;
4833;SDS011;12895;51.064;7.028;2023-10-09T11:13:35;8.00;;;7.10;;
4833;SDS011;12895;51.064;7.028;2023-10-09T11:16:22;9.17;;;7.57;;
4833;SDS011;12895;51.064;7.028;2023-10-09T11:19:25;10.97;;;8.33;;
4833;SDS011;12895;51.064;7.028;2023-10-09T11:22:15;8.80;;;8.00;;
4833;SDS011;12895;51.064;7.028;2023-10-09T11:25:12;11.20;;;10.10;;
4833;SDS011;12895;51.064;7.028;2023-10-09T11:28:02;14.90;;;9.00;;
4833;SDS011;12895;51.064;7.028;2023-10-09T11:31:08;9.50;;;7.33;;
4833;SDS011;12895;51.064;7.028;2023-10-09T11:33:56;8.20;;;7.00;;
4833;SDS011;12895;51.064;7.028;2023-10-09T11:36:45;8.77;;;6.37;;
4833;SDS011;12895;51.064;7.028;2023-10-09T11:39:34;10.53;;;7.53;;
4833;SDS011;12895;51.064;7.028;2023-10-09T11:42:20;8.00;;;7.20;;
4833;SDS011;12895;51.064;7.028;2023-10-09T11:45:20;13.90;;;7.77;;
4833;SDS011;12895;51.064;7.028;2023-10-09T11:48:17;14.80;;;8.60;;
4833;SDS011;12895;51.064;7.028;2023-10-09T11:51:13;11.50;;;7.90;;
4833;SDS011;12895;51.064;7.028;2023-10-09T11:54:03;7.73;;;6.93;;
4833;SDS011;12895;51.064;7.028;2023-10-09T11:56:52;9.33;;;7.90;;
4833;SDS011;12895;51.064;7.028;2023-10-09T11:59:39;10.20;;;7.47;;
4833;SDS011;12895;51.064;7.028;2023-10-09T12:02:25;8.07;;;7.27;;
4833;SDS011;12895;51.064;7.028;2023-10-09T12:05:10;9.43;;;6.83;;
4833;SDS011;12895;51.064;7.028;2023-10-09T12:08:03;9.00;;;7.67;;
4833;SDS011;12895;51.064;7.028;2023-10-09T12:10:53;8.97;;;8.00;;
4833;SDS011;12895;51.064;7.028;2023-10-09T12:13:39;9.40;;;8.40;;
4833;SDS011;12895;51.064;7.028;2023-10-09T12:16:26;9.83;;;8.77;;
4833;SDS011;12895;51.064;7.028;2023-10-09T12:19:12;9.87;;;8.20;;
4833;SDS011;12895;51.064;7.028;2023-10-09T12:21:58;12.53;;;8.33;;
4833;SDS011;12895;51.064;7.028;2023-10-09T12:24:45;8.50;;;7.60;;
4833;SDS011;12895;51.064;7.028;2023-10-09T12:27:30;11.50;;;8.63;;
4833;SDS011;12895;51.064;7.028;2023-10-09T12:30:16;8.53;;;7.47;;
4833;SDS011;12895;51.064;7.028;2023-10-09T12:33:02;9.70;;;8.70;;
4833;SDS011;12895;51.064;7.028;2023-10-09T12:35:49;10.80;;;8.53;;
4833;SDS011;12895;51.064;7.028;2023-10-09T12:38:35;12.03;;;9.20;;
4833;SDS011;12895;51.064;7.028;2023-10-09T12:41:21;11.37;;;8.87;;
4833;SDS011;12895;51.064;7.028;2023-10-09T12:44:10;9.60;;;8.20;;
4833;SDS011;12895;51.064;7.028;2023-10-09T12:46:58;11.03;;;9.10;;
4833;SDS011;12895;51.064;7.028;2023-10-09T12:49:48;11.67;;;8.90;;
4833;SDS011;12895;51.064;7.028;2023-10-09T12:52:34;9.80;;;8.80;;
4833;SDS011;12895;51.064;7.028;2023-10-09T12:55:20;11.43;;;8.33;;
4833;SDS011;12895;51.064;7.028;2023-10-09T12:58:07;10.27;;;8.73;;
4833;SDS011;12895;51.064;7.028;2023-10-09T13:00:53;10.30;;;8.40;;
4833;SDS011;12895;51.064;7.028;2023-10-09T13:03:38;12.00;;;9.10;;
4833;SDS011;12895;51.064;7.028;2023-10-09T13:06:24;18.03;;;9.10;;
4833;SDS011;12895;51.064;7.028;2023-10-09T13:09:09;12.87;;;8.40;;
4833;SDS011;12895;51.064;7.028;2023-10-09T13:11:55;11.20;;;8.77;;
4833;SDS011;12895;51.064;7.028;2023-10-09T13:14:45;10.23;;;8.83;;
4833;SDS011;12895;51.064;7.028;2023-10-09T13:17:33;11.37;;;8.97;;
4833;SDS011;12895;51.064;7.028;2023-10-09T13:20:20;11.00;;;9.80;;
4833;SDS011;12895;51.064;7.028;2023-10-09T13:23:05;12.13;;;10.17;;
4833;SDS011;12895;51.064;7.028;2023-10-09T13:25:51;14.23;;;9.60;;
4833;SDS011;12895;51.064;7.028;2023-10-09T13:28:37;11.80;;;9.43;;
4833;SDS011;12895;51.064;7.028;2023-10-09T13:31:26;13.50;;;9.20;;
4833;SDS011;12895;51.064;7.028;2023-10-09T13:34:11;15.50;;;9.10;;
4833;SDS011;12895;51.064;7.028;2023-10-09T13:36:58;17.93;;;8.80;;
4833;SDS011;12895;51.064;7.028;2023-10-09T13:39:55;13.20;;;8.83;;
4833;SDS011;12895;51.064;7.028;2023-10-09T13:42:41;12.87;;;8.57;;
4833;SDS011;12895;51.064;7.028;2023-10-09T13:45:27;10.80;;;9.60;;
4833;SDS011;12895;51.064;7.028;2023-10-09T13:48:14;12.30;;;8.73;;
4833;SDS011;12895;51.064;7.028;2023-10-09T13:51:01;9.33;;;8.43;;
4833;SDS011;12895;51.064;7.028;2023-10-09T13:53:51;10.43;;;8.90;;
4833;SDS011;12895;51.064;7.028;2023-10-09T13:56:36;14.40;;;8.67;;
4833;SDS011;12895;51.064;7.028;2023-10-09T13:59:23;12.00;;;8.03;;
4833;SDS011;12895;51.064;7.028;2023-10-09T14:02:09;10.60;;;9.40;;
4833;SDS011;12895;51.064;7.028;2023-10-09T14:05:02;11.77;;;8.80;;
4833;SDS011;12895;51.064;7.028;2023-10-09T14:07:48;9.90;;;8.60;;
4833;SDS011;12895;51.064;7.028;2023-10-09T14:10:33;10.47;;;8.93;;
4833;SDS011;12895;51.064;7.028;2023-10-09T14:13:22;11.33;;;9.20;;
4833;SDS011;12895;51.064;7.028;2023-10-09T14:16:12;11.80;;;8.43;;
4833;SDS011;12895;51.064;7.028;2023-10-09T14:19:08;11.50;;;9.57;;
4833;SDS011;12895;51.064;7.028;2023-10-09T14:21:58;9.07;;;8.10;;
4833;SDS011;12895;51.064;7.028;2023-10-09T14:24:43;10.87;;;8.80;;
4833;SDS011;12895;51.064;7.028;2023-10-09T14:27:30;9.37;;;8.47;;
4833;SDS011;12895;51.064;7.028;2023-10-09T14:30:19;10.97;;;9.40;;
4833;SDS011;12895;51.064;7.028;2023-10-09T14:33:14;11.97;;;9.70;;
4833;SDS011;12895;51.064;7.028;2023-10-09T14:36:06;13.10;;;9.47;;
4833;SDS011;12895;51.064;7.028;2023-10-09T14:38:53;10.50;;;9.40;;
4833;SDS011;12895;51.064;7.028;2023-10-09T14:41:40;12.17;;;9.40;;
4833;SDS011;12895;51.064;7.028;2023-10-09T14:44:25;11.80;;;9.53;;
4833;SDS011;12895;51.064;7.028;2023-10-09T14:47:12;8.93;;;8.00;;
4833;SDS011;12895;51.064;7.028;2023-10-09T14:49:57;9.43;;;8.53;;
4833;SDS011;12895;51.064;7.028;2023-10-09T14:52:45;9.73;;;8.73;;
4833;SDS011;12895;51.064;7.028;2023-10-09T14:55:33;11.53;;;9.20;;
4833;SDS011;12895;51.064;7.028;2023-10-09T14:58:19;11.13;;;9.07;;
4833;SDS011;12895;51.064;7.028;2023-10-09T15:01:07;11.57;;;9.70;;
4833;SDS011;12895;51.064;7.028;2023-10-09T15:03:55;10.03;;;8.90;;
4833;SDS011;12895;51.064;7.028;2023-10-09T15:06:41;11.20;;;8.87;;
4833;SDS011;12895;51.064;7.028;2023-10-09T15:09:26;12.00;;;8.93;;
4833;SDS011;12895;51.064;7.028;2023-10-09T15:12:15;10.03;;;8.40;;
4833;SDS011;12895;51.064;7.028;2023-10-09T15:15:00;9.93;;;8.90;;
4833;SDS011;12895;51.064;7.028;2023-10-09T15:17:45;10.50;;;8.40;;
4833;SDS011;12895;51.064;7.028;2023-10-09T15:20:31;9.77;;;8.73;;
4833;SDS011;12895;51.064;7.028;2023-10-09T15:23:17;9.60;;;8.60;;
4833;SDS011;12895;51.064;7.028;2023-10-09T15:26:03;10.37;;;8.73;;
4833;SDS011;12895;51.064;7.028;2023-10-09T15:28:52;10.60;;;9.50;;
4833;SDS011;12895;51.064;7.028;2023-10-09T15:31:37;9.97;;;8.87;;
4833;SDS011;12895;51.064;7.028;2023-10-09T15:34:24;10.90;;;8.90;;
4833;SDS011;12895;51.064;7.028;2023-10-09T15:37:11;10.10;;;8.80;;
4833;SDS011;12895;51.064;7.028;2023-10-09T15:39:57;11.33;;;8.70;;
4833;SDS011;12895;51.064;7.028;2023-10-09T15:42:48;13.60;;;10.23;;
4833;SDS011;12895;51.064;7.028;2023-10-09T15:45:36;9.20;;;8.27;;
4833;SDS011;12895;51.064;7.028;2023-10-09T15:48:25;9.97;;;8.17;;
4833;SDS011;12895;51.064;7.028;2023-10-09T15:51:10;13.07;;;8.50;;
4833;SDS011;12895;51.064;7.028;2023-10-09T15:53:58;11.07;;;8.10;;
4833;SDS011;12895;51.064;7.028;2023-10-09T15:56:44;9.60;;;8.60;;
4833;SDS011;12895;51.064;7.028;2023-10-09T15:59:30;11.00;;;9.27;;
4833;SDS011;12895;51.064;7.028;2023-10-09T16:02:17;9.47;;;8.13;;
4833;SDS011;12895;51.064;7.028;2023-10-09T16:05:03;10.03;;;8.80;;
4833;SDS011;12895;51.064;7.028;2023-10-09T16:07:49;11.03;;;9.20;;
4833;SDS011;12895;51.064;7.028;2023-10-09T16:10:34;17.87;;;12.50;;
4833;SDS011;12895;51.064;7.028;2023-10-09T16:13:20;11.80;;;8.93;;
4833;SDS011;12895;51.064;7.028;2023-10-09T16:16:05;14.60;;;9.17;;
4833;SDS011;12895;51.064;7.028;2023-10-09T16:18:54;12.63;;;9.17;;
4833;SDS011;12895;51.064;7.028;2023-10-09T16:21:39;9.90;;;8.73;;
4833;SDS011;12895;51.064;7.028;2023-10-09T16:24:24;11.20;;;9.00;;
4833;SDS011;12895;51.064;7.028;2023-10-09T16:27:09;12.10;;;9.80;;
4833;SDS011;12895;51.064;7.028;2023-10-09T16:29:58;17.53;;;9.70;;
4833;SDS011;12895;51.064;7.028;2023-10-09T16:32:49;11.30;;;9.90;;
4833;SDS011;12895;51.064;7.028;2023-10-09T16:35:36;14.97;;;9.93;;
4833;SDS011;12895;51.064;7.028;2023-10-09T16:38:24;21.67;;;10.37;;
4833;SDS011;12895;51.064;7.028;2023-10-09T16:41:09;12.53;;;10.40;;
4833;SDS011;12895;51.064;7.028;2023-10-09T16:43:54;12.27;;;10.13;;
4833;SDS011;12895;51.064;7.028;2023-10-09T16:46:40;12.90;;;10.57;;
4833;SDS011;12895;51.064;7.028;2023-10-09T16:49:28;13.53;;;10.57;;
4833;SDS011;12895;51.064;7.028;2023-10-09T16:52:15;11.60;;;10.20;;
4833;SDS011;12895;51.064;7.028;2023-10-09T16:55:00;12.70;;;9.90;;
4833;SDS011;12895;51.064;7.028;2023-10-09T16:57:46;11.40;;;10.27;;
4833;SDS011;12895;51.064;7.028;2023-10-09T17:00:32;12.73;;;10.43;;
4833;SDS011;12895;51.064;7.028;2023-10-09T17:03:19;14.03;;;10.50;;
4833;SDS011;12895;51.064;7.028;2023-10-09T17:06:07;12.20;;;11.00;;
4833;SDS011;12895;51.064;7.028;2023-10-09T17:08:55;13.60;;;10.67;;